Time;durP1;ratioP1;P1;durP2;ratioP2;P2;SDS_P1;SDS_P2;PMS_P1;PMS_P2;Temp;Humidity;BMP_temperature;BMP_pressure;BME280_temperature;BME280_humidity;BME280_pressure;Samples;Min_cycle;Max_cycle;Signal;HPM_P1;HPM_P2
2021/06/28 00:01:23;;;;;;;6.03;5.50;;;21.10;99.90;;;;;;4954271;28;20666;-44
2021/06/28 00:03:53;;;;;;;6.38;5.82;;;21.20;99.90;;;;;;4953972;28;20240;-47
2021/06/28 00:06:22;;;;;;;5.90;5.45;;;21.20;99.90;;;;;;4954259;28;20216;-44
2021/06/28 00:08:51;;;;;;;5.75;5.35;;;21.20;99.90;;;;;;4954025;28;20585;-49
2021/06/28 00:11:19;;;;;;;6.07;5.57;;;21.20;99.90;;;;;;4954068;28;20231;-49
2021/06/28 00:13:49;;;;;;;5.72;5.32;;;21.20;99.90;;;;;;4953971;28;20601;-46
2021/06/28 00:16:17;;;;;;;5.88;5.38;;;21.20;99.90;;;;;;4953925;28;20270;-45
2021/06/28 00:18:45;;;;;;;6.03;5.53;;;21.20;99.90;;;;;;4953523;28;20713;-48
2021/06/28 00:21:13;;;;;;;6.07;5.68;;;21.20;99.90;;;;;;4953751;28;20293;-44
2021/06/28 00:23:43;;;;;;;5.88;5.38;;;21.20;99.90;;;;;;4954007;28;20265;-45
2021/06/28 00:26:11;;;;;;;5.93;5.25;;;21.10;99.90;;;;;;4953528;28;20211;-49
2021/06/28 00:28:38;;;;;;;7.75;5.97;;;21.10;99.90;;;;;;4953866;28;20307;-45
2021/06/28 00:31:08;;;;;;;6.57;5.95;;;21.10;99.90;;;;;;4953833;28;20208;-48
2021/06/28 00:33:38;;;;;;;6.65;5.72;;;21.10;99.90;;;;;;4953830;28;20298;-47
2021/06/28 00:36:06;;;;;;;5.78;5.18;;;21.10;99.90;;;;;;4953802;28;20235;-46
2021/06/28 00:38:34;;;;;;;5.93;5.38;;;21.10;99.90;;;;;;4953708;28;20222;-47
2021/06/28 00:41:03;;;;;;;6.38;5.85;;;21.00;99.90;;;;;;4953435;28;20254;-46
2021/06/28 00:43:31;;;;;;;8.52;6.78;;;21.10;99.90;;;;;;4953796;28;20615;-49
2021/06/28 00:45:59;;;;;;;7.45;5.72;;;21.00;99.90;;;;;;4953511;28;20298;-45
2021/06/28 00:48:27;;;;;;;6.60;6.07;;;21.00;99.90;;;;;;4953679;28;20212;-45
2021/06/28 00:50:56;;;;;;;6.75;6.15;;;21.00;99.90;;;;;;4953483;28;20219;-51
2021/06/28 00:53:25;;;;;;;6.22;5.65;;;21.00;99.90;;;;;;4953606;28;20769;-48
2021/06/28 00:56:08;;;;;;;7.32;6.43;;;20.90;99.90;;;;;;4953287;28;20234;-48
2021/06/28 00:58:38;;;;;;;7.13;6.53;;;20.90;99.90;;;;;;4955000;28;20274;-47
2021/06/28 01:01:07;;;;;;;5.78;5.25;;;20.90;99.90;;;;;;4957426;28;20671;-49
2021/06/28 01:03:35;;;;;;;8.55;6.05;;;20.80;99.90;;;;;;4957536;28;20309;-44
2021/06/28 01:06:04;;;;;;;6.45;5.95;;;20.70;99.90;;;;;;4957425;28;20391;-43
2021/06/28 01:08:33;;;;;;;5.90;5.47;;;20.70;99.90;;;;;;4957044;28;20747;-45
2021/06/28 01:11:02;;;;;;;6.82;6.18;;;20.60;99.90;;;;;;4957265;28;20207;-44
2021/06/28 01:13:31;;;;;;;7.13;6.50;;;20.60;99.90;;;;;;4957384;28;20211;-45
2021/06/28 01:16:00;;;;;;;6.75;6.10;;;20.50;99.90;;;;;;4957028;28;20761;-48
2021/06/28 01:18:29;;;;;;;6.45;5.85;;;20.40;99.90;;;;;;4957208;28;20651;-47
2021/06/28 01:20:58;;;;;;;7.00;6.40;;;20.40;99.90;;;;;;4956524;28;20483;-45
2021/06/28 01:23:29;;;;;;;6.28;5.78;;;20.30;99.90;;;;;;4956852;28;20207;-48
2021/06/28 01:25:59;;;;;;;7.03;6.40;;;20.30;99.90;;;;;;4956756;28;20580;-48
2021/06/28 01:28:28;;;;;;;8.02;7.38;;;20.20;99.90;;;;;;4957235;28;20293;-47
2021/06/28 01:30:59;;;;;;;6.95;6.35;;;20.20;99.90;;;;;;4956959;28;20238;-47
2021/06/28 01:33:27;;;;;;;7.22;6.15;;;20.20;99.90;;;;;;4956798;28;20264;-46
2021/06/28 01:35:55;;;;;;;7.13;6.47;;;20.10;99.90;;;;;;4956866;28;20488;-46
2021/06/28 01:38:23;;;;;;;7.95;7.25;;;20.10;99.90;;;;;;4957169;28;20594;-48
2021/06/28 01:40:53;;;;;;;6.60;6.07;;;20.10;99.90;;;;;;4957055;28;20231;-45
2021/06/28 01:43:23;;;;;;;7.13;6.25;;;20.10;99.90;;;;;;4957126;28;20321;-48
2021/06/28 01:45:52;;;;;;;6.90;6.32;;;20.00;99.90;;;;;;4956813;28;20226;-46
2021/06/28 01:48:20;;;;;;;7.07;6.38;;;20.00;99.90;;;;;;4956762;28;20226;-45
2021/06/28 01:50:48;;;;;;;7.35;6.63;;;20.00;99.90;;;;;;4956360;28;20218;-48
2021/06/28 01:53:16;;;;;;;7.97;7.25;;;20.00;99.90;;;;;;4956894;28;20310;-48
2021/06/28 01:55:44;;;;;;;8.10;7.40;;;20.00;99.90;;;;;;4956746;28;20255;-46
2021/06/28 01:58:16;;;;;;;7.55;6.55;;;20.00;99.90;;;;;;4956323;28;20258;-49
2021/06/28 02:00:46;;;;;;;6.72;6.15;;;20.00;99.90;;;;;;4956432;28;20213;-50
2021/06/28 02:03:15;;;;;;;6.63;6.13;;;20.10;99.90;;;;;;4956856;28;20625;-48
2021/06/28 02:05:46;;;;;;;6.63;6.10;;;20.10;99.90;;;;;;4956678;28;20298;-44
2021/06/28 02:08:16;;;;;;;6.90;6.30;;;20.10;99.90;;;;;;4956642;28;20219;-50
2021/06/28 02:10:48;;;;;;;7.28;6.57;;;20.10;99.90;;;;;;4956360;28;20311;-44
2021/06/28 02:13:18;;;;;;;7.75;7.10;;;20.10;99.90;;;;;;4956578;28;20266;-46
2021/06/28 02:15:47;;;;;;;6.55;6.05;;;20.10;99.90;;;;;;4956572;28;20211;-46
2021/06/28 02:18:15;;;;;;;7.00;6.40;;;20.00;99.90;;;;;;4956460;28;20297;-52
2021/06/28 02:20:44;;;;;;;7.20;6.60;;;19.90;99.90;;;;;;4956065;28;20214;-46
2021/06/28 02:23:30;;;;;;;6.95;6.28;;;19.90;99.90;;;;;;4956125;28;20334;-44
2021/06/28 02:26:00;;;;;;;6.82;6.22;;;19.90;99.90;;;;;;4956396;28;20258;-46
2021/06/28 02:28:31;;;;;;;6.47;5.88;;;19.80;99.90;;;;;;4956256;28;20623;-45
2021/06/28 02:30:59;;;;;;;6.85;6.22;;;19.70;99.90;;;;;;4956017;28;20313;-47
2021/06/28 02:33:28;;;;;;;6.90;6.40;;;19.60;99.90;;;;;;4955962;28;20548;-48
2021/06/28 02:35:57;;;;;;;7.05;6.55;;;19.60;99.90;;;;;;4955953;28;20306;-48
2021/06/28 02:38:25;;;;;;;7.47;6.82;;;19.60;99.90;;;;;;4955918;28;20225;-47
2021/06/28 02:40:53;;;;;;;7.85;7.25;;;19.50;99.90;;;;;;4955925;28;20358;-43
2021/06/28 02:43:22;;;;;;;7.75;6.97;;;19.50;99.90;;;;;;4955907;28;20245;-48
2021/06/28 02:45:51;;;;;;;8.77;8.02;;;19.50;99.90;;;;;;4955966;28;20298;-48
2021/06/28 02:48:20;;;;;;;7.32;6.80;;;19.50;99.90;;;;;;4955772;28;20686;-44
2021/06/28 02:50:48;;;;;;;8.27;7.57;;;19.50;99.90;;;;;;4955842;28;20303;-49
2021/06/28 02:53:17;;;;;;;7.93;7.32;;;19.50;99.90;;;;;;4955960;28;20207;-52
2021/06/28 02:55:46;;;;;;;9.07;7.53;;;19.50;99.90;;;;;;4955920;28;20235;-47
2021/06/28 02:58:14;;;;;;;7.85;7.05;;;19.40;99.90;;;;;;4956270;28;20242;-49
2021/06/28 03:00:42;;;;;;;8.15;7.32;;;19.40;99.90;;;;;;4955919;28;20235;-46
2021/06/28 03:03:12;;;;;;;8.25;7.55;;;19.40;99.90;;;;;;4955417;28;20572;-45
2021/06/28 03:05:40;;;;;;;9.40;8.60;;;19.40;99.90;;;;;;4955586;28;20248;-44
2021/06/28 03:08:08;;;;;;;7.88;7.00;;;19.40;99.90;;;;;;4955363;28;20282;-52
2021/06/28 03:10:37;;;;;;;8.80;7.97;;;19.40;99.90;;;;;;4955316;28;20226;-44
2021/06/28 03:13:07;;;;;;;7.60;7.00;;;19.50;99.90;;;;;;4955347;28;20374;-48
2021/06/28 03:15:36;;;;;;;7.18;6.55;;;19.50;99.90;;;;;;4955285;28;20211;-49
2021/06/28 03:18:05;;;;;;;8.27;7.57;;;19.50;99.90;;;;;;4955427;28;20227;-43
2021/06/28 03:20:35;;;;;;;6.95;6.45;;;19.50;99.90;;;;;;4954933;28;20266;-41
2021/06/28 03:23:03;;;;;;;7.25;6.63;;;19.60;99.90;;;;;;4955200;28;20278;-50
2021/06/28 03:25:31;;;;;;;7.18;6.57;;;19.60;99.90;;;;;;4955235;28;20215;-46
2021/06/28 03:27:59;;;;;;;9.00;6.75;;;19.60;99.90;;;;;;4955000;28;20215;-50
2021/06/28 03:30:27;;;;;;;7.40;6.70;;;19.50;99.90;;;;;;4955207;28;20211;-47
2021/06/28 03:32:55;;;;;;;6.63;6.03;;;19.50;99.90;;;;;;4954890;28;20693;-47
2021/06/28 03:35:23;;;;;;;6.90;6.30;;;19.50;99.90;;;;;;4955284;28;20215;-49
2021/06/28 03:37:53;;;;;;;7.63;6.38;;;19.60;99.90;;;;;;4954772;28;20762;-46
2021/06/28 03:40:21;;;;;;;7.00;6.38;;;19.60;99.90;;;;;;4954805;28;20314;-49
2021/06/28 03:42:49;;;;;;;9.68;8.88;;;19.60;99.90;;;;;;4954693;28;20661;-45
2021/06/28 03:45:18;;;;;;;6.35;5.80;;;19.60;99.90;;;;;;4954321;28;20258;-44
2021/06/28 03:47:46;;;;;;;7.07;6.38;;;19.60;99.90;;;;;;4954568;28;20315;-44
2021/06/28 03:50:14;;;;;;;11.77;10.77;;;19.70;99.90;;;;;;4954598;28;20248;-47
2021/06/28 03:52:43;;;;;;;8.05;7.25;;;19.70;99.90;;;;;;4954393;28;20235;-44
2021/06/28 03:55:12;;;;;;;7.43;6.22;;;19.70;99.90;;;;;;4954160;28;20254;-48
2021/06/28 03:57:40;;;;;;;7.07;6.47;;;19.70;99.90;;;;;;4953913;28;20212;-48
2021/06/28 04:00:12;;;;;;;6.43;5.82;;;19.70;99.90;;;;;;4954017;28;20250;-44
2021/06/28 04:02:42;;;;;;;7.28;6.72;;;19.70;99.90;;;;;;4953864;28;20266;-45
2021/06/28 04:05:13;;;;;;;6.30;5.70;;;19.80;99.90;;;;;;4954009;28;20207;-46
2021/06/28 04:07:41;;;;;;;6.68;5.78;;;19.80;99.90;;;;;;4953814;28;20219;-44
2021/06/28 04:10:16;;;;;;;5.95;5.55;;;19.80;99.90;;;;;;4953907;28;20306;-48
2021/06/28 04:12:45;;;;;;;7.10;6.40;;;19.90;99.90;;;;;;4954024;28;20212;-44
2021/06/28 04:15:13;;;;;;;7.18;6.53;;;20.00;99.90;;;;;;4954154;28;20637;-46
2021/06/28 04:17:45;;;;;;;6.53;5.93;;;20.10;99.90;;;;;;4953908;28;20314;-46
2021/06/28 04:20:15;;;;;;;7.18;6.55;;;20.20;99.90;;;;;;4953710;28;20219;-45
2021/06/28 04:22:43;;;;;;;6.78;6.18;;;20.30;99.90;;;;;;4953794;28;20339;-48
2021/06/28 04:25:16;;;;;;;6.90;6.03;;;20.40;99.90;;;;;;4954399;28;20211;-43
2021/06/28 04:27:44;;;;;;;7.45;6.85;;;20.50;99.90;;;;;;4954050;28;20225;-46
2021/06/28 04:30:15;;;;;;;8.00;7.35;;;20.50;99.90;;;;;;4954103;28;20302;-45
2021/06/28 04:32:44;;;;;;;8.43;7.72;;;20.50;99.90;;;;;;4953085;28;20247;-47
2021/06/28 04:35:15;;;;;;;8.38;7.70;;;20.60;99.90;;;;;;4954351;28;20298;-44
2021/06/28 04:37:44;;;;;;;7.38;6.68;;;20.60;99.90;;;;;;4954203;28;20211;-46
2021/06/28 04:40:14;;;;;;;8.13;7.38;;;20.60;99.90;;;;;;4953961;28;20214;-44
2021/06/28 04:42:44;;;;;;;7.82;7.00;;;20.50;99.90;;;;;;4952749;28;20695;-45
2021/06/28 04:45:14;;;;;;;6.10;5.50;;;20.50;99.90;;;;;;4953443;28;20687;-44
2021/06/28 04:47:43;;;;;;;7.57;6.55;;;20.50;99.90;;;;;;4954052;28;20583;-47
2021/06/28 04:50:12;;;;;;;7.18;6.50;;;20.40;99.90;;;;;;4953923;28;20310;-49
2021/06/28 04:52:41;;;;;;;7.20;6.60;;;20.40;99.90;;;;;;4954060;28;20242;-48
2021/06/28 04:55:14;;;;;;;7.68;6.78;;;20.30;99.90;;;;;;4954043;28;20258;-48
2021/06/28 04:57:45;;;;;;;6.28;5.72;;;20.30;99.90;;;;;;4953738;28;20212;-47
2021/06/28 05:00:16;;;;;;;7.22;6.18;;;20.40;99.90;;;;;;4954126;28;20561;-47
2021/06/28 05:02:45;;;;;;;7.00;6.30;;;20.30;99.90;;;;;;4953537;28;20717;-45
2021/06/28 05:05:15;;;;;;;6.78;6.07;;;20.40;99.90;;;;;;4953909;28;20338;-51
2021/06/28 05:07:43;;;;;;;8.02;6.43;;;20.60;99.90;;;;;;4954075;28;20302;-48
2021/06/28 05:10:13;;;;;;;7.10;6.43;;;20.60;99.90;;;;;;4953975;28;20215;-46
2021/06/28 05:12:42;;;;;;;7.90;6.63;;;20.70;99.90;;;;;;4954349;28;20258;-48
2021/06/28 05:15:13;;;;;;;13.90;7.28;;;20.70;99.90;;;;;;4955402;28;20211;-47
2021/06/28 05:17:41;;;;;;;6.70;6.18;;;20.80;99.90;;;;;;4955461;28;20299;-43
2021/06/28 05:20:13;;;;;;;7.13;6.07;;;21.00;99.90;;;;;;4953942;28;20306;-45
2021/06/28 05:22:42;;;;;;;7.70;7.00;;;21.10;99.90;;;;;;4953671;28;20364;-45
2021/06/28 05:25:12;;;;;;;7.18;6.50;;;21.20;99.90;;;;;;4954196;28;20310;-42
2021/06/28 05:27:40;;;;;;;7.22;6.55;;;21.20;99.90;;;;;;4960169;28;20294;-43
2021/06/28 05:30:11;;;;;;;7.10;6.00;;;21.20;99.90;;;;;;4953621;28;20220;-42
2021/06/28 05:32:40;;;;;;;8.48;7.45;;;21.30;99.90;;;;;;4953643;28;20675;-43
2021/06/28 05:35:10;;;;;;;7.28;6.68;;;21.40;99.90;;;;;;4953487;28;20698;-43
2021/06/28 05:37:39;;;;;;;7.18;6.22;;;21.40;99.90;;;;;;4953740;28;20219;-46
2021/06/28 05:40:09;;;;;;;10.98;6.43;;;21.50;99.90;;;;;;4953689;28;20219;-45
2021/06/28 05:42:39;;;;;;;8.60;6.40;;;21.60;99.90;;;;;;4953291;28;20308;-43
2021/06/28 05:45:09;;;;;;;9.07;5.72;;;21.60;99.90;;;;;;4955492;28;20270;-43
2021/06/28 05:47:37;;;;;;;7.30;6.65;;;21.80;99.90;;;;;;4956511;28;20324;-43
2021/06/28 05:50:08;;;;;;;9.45;5.60;;;21.80;99.90;;;;;;4957173;28;20306;-46
2021/06/28 05:52:36;;;;;;;6.97;6.00;;;21.90;99.90;;;;;;4956858;28;20207;-43
2021/06/28 05:55:05;;;;;;;6.70;6.00;;;22.00;99.90;;;;;;4957189;28;20290;-43
2021/06/28 05:57:33;;;;;;;6.60;5.97;;;22.00;99.90;;;;;;4956453;28;20718;-43
2021/06/28 06:00:01;;;;;;;6.10;5.50;;;22.10;99.90;;;;;;4956543;28;20274;-42
2021/06/28 06:02:29;;;;;;;7.40;6.70;;;22.10;99.90;;;;;;4956611;28;20211;-42
2021/06/28 06:04:57;;;;;;;6.20;5.10;;;22.00;99.90;;;;;;4957269;28;20702;-43
2021/06/28 06:07:26;;;;;;;6.38;5.88;;;22.00;99.90;;;;;;4956645;28;20313;-43
2021/06/28 06:09:54;;;;;;;11.43;6.57;;;22.00;99.90;;;;;;4956699;28;20266;-47
2021/06/28 06:12:23;;;;;;;9.25;7.20;;;22.20;99.90;;;;;;4956959;28;20660;-47
2021/06/28 06:14:51;;;;;;;6.88;5.43;;;22.30;99.90;;;;;;4956519;28;20263;-45
2021/06/28 06:17:19;;;;;;;10.73;6.60;;;22.40;99.90;;;;;;4956511;28;20212;-45
2021/06/28 06:19:47;;;;;;;6.35;5.82;;;22.40;99.90;;;;;;4956044;28;20258;-44
2021/06/28 06:22:15;;;;;;;6.53;6.03;;;22.50;99.90;;;;;;4956511;28;20326;-46
2021/06/28 06:24:44;;;;;;;7.03;5.97;;;22.50;99.90;;;;;;4956019;28;20624;-42
2021/06/28 06:27:12;;;;;;;8.98;6.43;;;22.60;99.90;;;;;;4956085;28;20258;-42
2021/06/28 06:29:40;;;;;;;5.70;5.20;;;22.70;99.90;;;;;;4955989;28;20251;-42
2021/06/28 06:32:08;;;;;;;6.38;5.60;;;22.80;99.90;;;;;;4955995;28;20290;-42
2021/06/28 06:34:36;;;;;;;8.13;6.00;;;22.90;99.90;;;;;;4956274;28;20243;-42
2021/06/28 06:37:05;;;;;;;5.88;5.28;;;22.90;99.90;;;;;;4955875;28;20211;-48
2021/06/28 06:39:35;;;;;;;5.95;4.68;;;23.00;99.90;;;;;;4955866;28;20208;-42
2021/06/28 06:42:04;;;;;;;8.13;5.90;;;23.10;99.90;;;;;;4956081;28;20218;-45
2021/06/28 06:44:32;;;;;;;6.38;5.88;;;23.20;99.90;;;;;;4955649;28;20231;-43
2021/06/28 06:47:00;;;;;;;4.95;4.55;;;23.20;99.90;;;;;;4955529;28;20302;-44
2021/06/28 06:49:28;;;;;;;5.53;4.78;;;23.30;99.90;;;;;;4955897;28;20267;-46
2021/06/28 06:51:56;;;;;;;6.72;4.88;;;23.30;99.90;;;;;;4956455;28;20302;-44
2021/06/28 06:54:25;;;;;;;47.30;8.65;;;23.40;99.90;;;;;;4956760;28;20288;-44
2021/06/28 06:56:53;;;;;;;6.57;4.78;;;23.50;99.90;;;;;;4955271;28;20257;-49
2021/06/28 06:59:22;;;;;;;4.80;4.40;;;23.60;99.90;;;;;;4955821;28;20239;-47
2021/06/28 07:01:50;;;;;;;7.13;5.10;;;23.70;99.90;;;;;;4955820;28;20211;-45
2021/06/28 07:04:18;;;;;;;6.85;4.80;;;23.80;99.90;;;;;;4955424;28;20241;-46
2021/06/28 07:06:46;;;;;;;5.68;4.82;;;23.90;99.90;;;;;;4955267;28;20306;-44
2021/06/28 07:09:15;;;;;;;5.35;4.82;;;24.00;99.90;;;;;;4955287;28;20723;-42
2021/06/28 07:11:43;;;;;;;8.90;5.22;;;24.10;99.90;;;;;;4955260;28;20310;-50
2021/06/28 07:14:12;;;;;;;8.63;4.65;;;24.20;99.90;;;;;;4955248;28;20218;-45
2021/06/28 07:16:43;;;;;;;5.50;5.10;;;24.20;99.90;;;;;;4955177;28;20690;-46
2021/06/28 07:19:11;;;;;;;6.15;4.75;;;24.30;99.90;;;;;;4954798;28;20605;-45
2021/06/28 07:21:39;;;;;;;4.65;4.25;;;24.40;99.90;;;;;;4955171;28;20261;-45
2021/06/28 07:24:09;;;;;;;6.80;4.47;;;24.40;99.90;;;;;;4955335;28;20314;-46
2021/06/28 07:26:36;;;;;;;5.57;4.88;;;24.40;99.90;;;;;;4955024;28;20307;-45
2021/06/28 07:29:05;;;;;;;4.50;4.15;;;24.50;99.90;;;;;;4955361;29;20212;-44
2021/06/28 07:31:33;;;;;;;6.18;5.07;;;24.60;99.90;;;;;;4955142;28;20302;-46
2021/06/28 07:34:03;;;;;;;4.63;4.22;;;24.70;99.90;;;;;;4955436;28;20286;-48
2021/06/28 07:36:32;;;;;;;5.80;4.15;;;24.70;99.90;;;;;;4955056;28;20215;-48
2021/06/28 07:39:02;;;;;;;22.13;5.18;;;24.80;99.90;;;;;;4955025;28;20321;-47
2021/06/28 07:41:32;;;;;;;4.35;3.42;;;24.90;99.90;;;;;;4954899;28;20317;-44
2021/06/28 07:44:02;;;;;;;45.30;6.50;;;24.90;99.90;;;;;;4954723;28;20228;-48
2021/06/28 07:46:30;;;;;;;6.70;3.38;;;25.00;99.90;;;;;;4954654;28;20706;-47
2021/06/28 07:48:58;;;;;;;4.13;3.45;;;25.10;99.90;;;;;;4955030;28;20250;-49
2021/06/28 07:51:31;;;;;;;4.90;3.35;;;25.20;99.90;;;;;;4955067;28;20294;-48
2021/06/28 07:53:59;;;;;;;4.15;3.47;;;25.20;99.60;;;;;;4954668;28;20298;-52
2021/06/28 07:56:27;;;;;;;3.70;3.40;;;25.30;99.40;;;;;;4954615;28;20333;-47
2021/06/28 07:58:55;;;;;;;3.78;3.15;;;25.40;99.30;;;;;;4954298;28;20289;-43
2021/06/28 08:01:24;;;;;;;3.20;3.00;;;25.50;99.10;;;;;;4954539;28;20246;-43
2021/06/28 08:03:52;;;;;;;4.63;3.53;;;25.50;98.90;;;;;;4954482;28;20215;-45
2021/06/28 08:06:21;;;;;;;3.78;3.35;;;25.70;98.80;;;;;;4954389;28;20276;-47
2021/06/28 08:08:51;;;;;;;3.97;3.67;;;25.80;98.40;;;;;;4954189;28;20695;-48
2021/06/28 08:11:22;;;;;;;5.47;3.13;;;25.80;98.00;;;;;;4954263;28;20215;-51
2021/06/28 08:13:52;;;;;;;28.15;5.13;;;25.90;97.90;;;;;;4954564;28;20575;-46
2021/06/28 08:16:22;;;;;;;4.03;3.10;;;26.00;97.60;;;;;;4954117;28;20208;-42
2021/06/28 08:18:52;;;;;;;9.13;3.53;;;26.10;97.20;;;;;;4954397;28;20216;-46
2021/06/28 08:21:37;;;;;;;8.98;3.63;;;26.10;97.00;;;;;;4953748;28;20263;-45
2021/06/28 08:24:09;;;;;;;22.00;4.65;;;26.10;96.90;;;;;;4954177;28;20218;-46
2021/06/28 08:26:39;;;;;;;5.00;3.80;;;26.20;96.70;;;;;;4954424;28;20303;-46
2021/06/28 08:29:07;;;;;;;3.95;3.65;;;26.30;96.40;;;;;;4954285;28;20608;-44
2021/06/28 08:31:37;;;;;;;9.25;3.38;;;26.40;96.10;;;;;;4954424;28;20242;-44
2021/06/28 08:34:13;;;;;;;4.13;3.13;;;26.40;95.90;;;;;;4954088;28;20211;-46
2021/06/28 08:36:44;;;;;;;3.67;3.38;;;26.50;95.80;;;;;;4954080;28;20286;-45
2021/06/28 08:39:14;;;;;;;5.93;3.28;;;26.50;95.70;;;;;;4954327;28;20294;-44
2021/06/28 08:41:45;;;;;;;2.67;2.47;;;26.60;95.80;;;;;;4954084;28;20246;-44
2021/06/28 08:44:14;;;;;;;3.65;2.72;;;26.60;95.70;;;;;;4953975;28;20251;-48
2021/06/28 08:46:43;;;;;;;3.22;2.92;;;26.60;95.60;;;;;;4953855;28;20253;-44
2021/06/28 08:49:12;;;;;;;3.42;3.10;;;26.60;95.40;;;;;;4954070;28;20229;-44
2021/06/28 08:51:40;;;;;;;39.75;6.93;;;26.70;95.40;;;;;;4953763;28;20278;-47
2021/06/28 08:54:11;;;;;;;6.95;4.13;;;26.70;95.40;;;;;;4953916;28;20254;-47
2021/06/28 08:56:44;;;;;;;2.97;2.78;;;26.70;95.50;;;;;;4953781;28;20290;-45
2021/06/28 08:59:18;;;;;;;11.60;4.40;;;26.80;95.40;;;;;;4953905;28;20326;-46
2021/06/28 09:01:46;;;;;;;5.00;3.13;;;26.90;95.60;;;;;;4953775;29;20294;-46
2021/06/28 09:04:15;;;;;;;14.65;3.63;;;27.00;95.20;;;;;;4953694;28;20551;-43
2021/06/28 09:06:44;;;;;;;7.45;3.00;;;27.10;94.90;;;;;;4953688;28;20231;-49
2021/06/28 09:09:14;;;;;;;3.75;2.67;;;27.20;94.50;;;;;;4953518;28;20219;-46
2021/06/28 09:11:46;;;;;;;2.30;2.20;;;27.30;94.20;;;;;;4953498;28;20789;-46
2021/06/28 09:14:15;;;;;;;6.07;3.10;;;27.30;94.00;;;;;;4953862;28;20211;-44
2021/06/28 09:16:45;;;;;;;2.95;2.75;;;27.40;94.00;;;;;;4953854;28;20346;-46
2021/06/28 09:19:16;;;;;;;3.42;3.10;;;27.50;93.80;;;;;;4954470;28;20215;-46
2021/06/28 09:21:49;;;;;;;4.75;3.15;;;27.50;93.70;;;;;;4957383;28;20233;-43
2021/06/28 09:24:30;;;;;;;3.25;2.83;;;27.60;93.50;;;;;;4957354;28;20679;-47
2021/06/28 09:27:23;;;;;;;3.70;3.17;;;27.70;93.50;;;;;;4957520;28;20266;-49
2021/06/28 09:29:54;;;;;;;2.40;2.30;;;27.90;93.30;;;;;;4957427;28;20306;-50
2021/06/28 09:32:24;;;;;;;4.22;2.88;;;28.00;93.40;;;;;;4957003;28;20241;-50
2021/06/28 09:34:55;;;;;;;17.17;4.15;;;28.00;93.00;;;;;;4957296;28;20242;-50
2021/06/28 09:37:25;;;;;;;2.53;2.33;;;28.00;92.50;;;;;;4957146;28;20207;-45
2021/06/28 09:39:55;;;;;;;4.55;2.40;;;28.10;92.10;;;;;;4957232;28;20215;-47
2021/06/28 09:42:27;;;;;;;13.02;2.83;;;28.10;91.60;;;;;;4957156;28;20211;-45
2021/06/28 09:44:56;;;;;;;4.38;3.00;;;28.10;90.80;;;;;;4956681;28;20686;-44
2021/06/28 09:47:26;;;;;;;4.53;2.75;;;28.00;90.80;;;;;;4956938;28;20211;-49
2021/06/28 09:50:04;;;;;;;6.38;3.33;;;28.00;90.60;;;;;;4956932;28;20208;-45
2021/06/28 09:52:34;;;;;;;3.15;2.45;;;28.00;89.90;;;;;;4956692;28;20257;-50
2021/06/28 09:55:18;;;;;;;2.65;2.45;;;28.00;90.10;;;;;;4956494;28;20598;-46
2021/06/28 09:58:09;;;;;;;4.53;2.40;;;28.00;90.00;;;;;;4956563;28;20227;-45
2021/06/28 10:00:39;;;;;;;3.03;2.78;;;28.00;90.30;;;;;;4956826;28;20215;-48
2021/06/28 10:03:31;;;;;;;3.30;3.00;;;28.10;90.30;;;;;;4956638;28;20238;-47
2021/06/28 10:06:06;;;;;;;2.70;2.50;;;28.10;90.30;;;;;;4956377;28;20578;-46
2021/06/28 10:08:34;;;;;;;3.05;2.72;;;28.10;90.10;;;;;;4956364;28;20570;-46
2021/06/28 10:11:12;;;;;;;2.60;2.40;;;28.20;89.50;;;;;;4956707;28;20215;-45
2021/06/28 10:13:42;;;;;;;4.50;2.47;;;28.30;89.00;;;;;;4956380;28;20254;-46
2021/06/28 10:16:10;;;;;;;2.65;2.45;;;28.30;89.10;;;;;;4956161;28;20701;-47
2021/06/28 10:18:39;;;;;;;15.13;3.88;;;28.40;88.20;;;;;;4956257;28;20727;-46
2021/06/28 10:21:08;;;;;;;2.30;2.08;;;28.40;87.60;;;;;;4956300;28;20306;-46
2021/06/28 10:23:37;;;;;;;4.43;2.38;;;28.40;87.00;;;;;;4956649;28;20294;-45
2021/06/28 10:26:06;;;;;;;3.65;2.50;;;28.40;86.80;;;;;;4956198;28;20351;-46
2021/06/28 10:28:36;;;;;;;5.18;2.30;;;28.40;85.70;;;;;;4956091;28;20303;-47
2021/06/28 10:31:06;;;;;;;2.83;2.63;;;28.40;85.60;;;;;;4954724;28;20302;-44
2021/06/28 10:33:36;;;;;;;2.38;2.25;;;28.30;85.80;;;;;;4956235;28;20295;-49
2021/06/28 10:36:08;;;;;;;3.10;2.80;;;28.40;85.60;;;;;;4956057;28;20207;-43
2021/06/28 10:38:47;;;;;;;2.78;2.58;;;28.40;85.00;;;;;;4955945;28;20306;-48
2021/06/28 10:41:34;;;;;;;2.90;2.50;;;28.50;84.90;;;;;;4955692;28;20250;-43
2021/06/28 10:44:02;;;;;;;4.35;2.70;;;28.50;84.50;;;;;;4955878;28;20207;-49
2021/06/28 10:46:33;;;;;;;12.95;3.67;;;28.40;84.80;;;;;;4955850;28;20236;-44
2021/06/28 10:49:02;;;;;;;3.30;2.88;;;28.50;84.80;;;;;;4955873;28;20262;-44
2021/06/28 10:51:42;;;;;;;3.65;2.58;;;28.50;84.60;;;;;;4955647;28;20314;-45
2021/06/28 10:54:14;;;;;;;2.97;2.78;;;28.60;84.70;;;;;;4955701;28;20217;-47
2021/06/28 10:56:54;;;;;;;5.05;2.55;;;28.70;84.80;;;;;;4955757;28;20214;-45
2021/06/28 10:59:33;;;;;;;2.88;2.65;;;28.80;84.40;;;;;;4955566;28;20243;-45
2021/06/28 11:02:20;;;;;;;2.42;2.22;;;28.80;83.00;;;;;;4956016;28;20253;-43
2021/06/28 11:04:55;;;;;;;4.10;2.67;;;28.90;82.40;;;;;;4956101;28;20223;-44
2021/06/28 11:07:24;;;;;;;11.55;3.63;;;28.90;81.60;;;;;;4955734;28;20245;-43
2021/06/28 11:09:54;;;;;;;3.22;2.97;;;29.00;81.20;;;;;;4955799;28;20303;-44
2021/06/28 11:12:25;;;;;;;3.22;2.50;;;29.10;80.40;;;;;;4956133;28;20207;-48
2021/06/28 11:14:59;;;;;;;4.28;2.60;;;29.10;80.70;;;;;;4955896;28;20601;-47
2021/06/28 11:17:50;;;;;;;2.28;2.13;;;29.10;81.30;;;;;;4954926;28;20593;-46
2021/06/28 11:20:32;;;;;;;2.65;2.13;;;29.20;81.30;;;;;;4955324;28;20590;-48
2021/06/28 11:23:07;;;;;;;5.20;2.42;;;29.20;79.10;;;;;;4955035;28;20247;-49
2021/06/28 11:25:44;;;;;;;2.83;2.63;;;29.30;78.50;;;;;;4955187;28;20226;-49
2021/06/28 11:28:18;;;;;;;6.32;2.28;;;29.30;78.30;;;;;;4954944;28;20672;-51
2021/06/28 11:30:49;;;;;;;3.78;2.15;;;29.30;78.90;;;;;;4955530;29;20211;-45
2021/06/28 11:33:36;;;;;;;7.38;2.22;;;29.40;79.30;;;;;;4954682;28;20212;-43
2021/06/28 11:36:06;;;;;;;3.65;2.85;;;29.50;79.40;;;;;;4955030;28;20242;-47
2021/06/28 11:38:38;;;;;;;6.95;2.95;;;29.60;79.00;;;;;;4954813;28;20222;-42
2021/06/28 11:41:16;;;;;;;7.80;2.63;;;29.60;78.70;;;;;;4954818;28;20233;-51
2021/06/28 11:43:47;;;;;;;4.88;2.22;;;29.70;77.00;;;;;;4954904;28;20223;-47
2021/06/28 11:46:17;;;;;;;15.25;3.22;;;29.60;76.70;;;;;;4955726;28;20675;-45
2021/06/28 11:48:49;;;;;;;2.95;2.13;;;29.60;76.50;;;;;;4954467;28;20271;-45
2021/06/28 11:51:22;;;;;;;4.45;2.03;;;29.60;76.40;;;;;;4954738;28;20298;-48
2021/06/28 11:53:56;;;;;;;2.83;2.55;;;29.60;76.40;;;;;;4954726;28;20215;-44
2021/06/28 11:56:30;;;;;;;2.33;2.20;;;29.60;76.90;;;;;;4954762;28;20211;-48
2021/06/28 11:59:01;;;;;;;2.92;2.63;;;29.60;76.40;;;;;;4954395;28;20244;-46
2021/06/28 12:01:31;;;;;;;17.73;3.50;;;29.70;76.70;;;;;;4955644;28;20326;-44
2021/06/28 12:04:04;;;;;;;2.60;2.35;;;29.70;76.70;;;;;;4955394;28;20214;-43
2021/06/28 12:06:35;;;;;;;4.38;2.22;;;29.70;75.90;;;;;;4955663;28;20249;-45
2021/06/28 12:09:09;;;;;;;2.35;2.15;;;29.70;75.10;;;;;;4955442;28;20298;-46
2021/06/28 12:11:48;;;;;;;6.60;2.13;;;29.80;74.70;;;;;;4954416;28;20215;-48
2021/06/28 12:14:32;;;;;;;8.45;2.50;;;29.80;74.00;;;;;;4954992;28;20246;-45
2021/06/28 12:17:01;;;;;;;3.35;1.77;;;29.80;73.90;;;;;;4954173;28;20208;-45
2021/06/28 12:19:50;;;;;;;2.80;1.77;;;29.80;73.90;;;;;;4954008;29;20290;-45
2021/06/28 12:22:21;;;;;;;1.60;1.45;;;29.90;73.00;;;;;;4954138;28;20679;-44
2021/06/28 12:24:55;;;;;;;1.95;1.52;;;29.90;71.40;;;;;;4954135;28;20238;-48
2021/06/28 12:27:26;;;;;;;2.72;1.80;;;30.00;69.80;;;;;;4953687;28;20239;-45
2021/06/28 12:29:55;;;;;;;7.28;1.48;;;30.00;69.50;;;;;;4954096;28;20219;-46
2021/06/28 12:32:24;;;;;;;3.97;1.65;;;30.00;69.70;;;;;;4953652;28;20258;-46
2021/06/28 12:34:56;;;;;;;3.28;1.80;;;30.10;69.80;;;;;;4953910;28;20298;-46
2021/06/28 12:37:29;;;;;;;3.05;2.28;;;30.20;69.10;;;;;;4955716;28;20204;-47
2021/06/28 12:40:12;;;;;;;3.60;2.35;;;30.20;68.20;;;;;;4953833;28;20290;-46
2021/06/28 12:42:41;;;;;;;5.47;2.97;;;30.30;68.40;;;;;;4954138;28;20302;-46
2021/06/28 12:45:11;;;;;;;6.15;2.88;;;30.40;69.20;;;;;;4953561;28;20212;-45
2021/06/28 12:47:40;;;;;;;2.47;1.90;;;30.40;68.90;;;;;;4953804;28;20231;-48
2021/06/28 12:50:14;;;;;;;2.38;2.17;;;30.50;68.40;;;;;;4953914;28;20208;-49
2021/06/28 12:52:42;;;;;;;8.52;2.50;;;30.50;67.90;;;;;;4953615;28;20281;-46
2021/06/28 12:55:14;;;;;;;9.43;2.67;;;30.50;68.00;;;;;;4953243;28;20294;-43
2021/06/28 12:57:43;;;;;;;8.82;2.20;;;30.50;67.80;;;;;;4953515;28;20243;-43
2021/06/28 13:00:23;;;;;;;2.15;1.95;;;30.50;67.50;;;;;;4953793;28;20306;-43
2021/06/28 13:02:57;;;;;;;15.65;2.70;;;30.60;66.40;;;;;;4953494;28;20782;-43